sensor_id;sensor_type;location;lat;lon;timestamp;P1;durP1;ratioP1;P2;durP2;ratioP2
56255;SDS011;57229;51.432;-2.598;2022-12-18T00:01:04;10.05;;;7.15;;
56255;SDS011;57229;51.432;-2.598;2022-12-18T00:03:34;12.77;;;7.07;;
56255;SDS011;57229;51.432;-2.598;2022-12-18T00:06:01;12.38;;;6.90;;
56255;SDS011;57229;51.432;-2.598;2022-12-18T00:08:27;10.43;;;6.43;;
56255;SDS011;57229;51.432;-2.598;2022-12-18T00:10:53;10.00;;;6.80;;
56255;SDS011;57229;51.432;-2.598;2022-12-18T00:13:19;8.52;;;6.68;;
56255;SDS011;57229;51.432;-2.598;2022-12-18T00:15:45;10.20;;;6.85;;
56255;SDS011;57229;51.432;-2.598;2022-12-18T00:18:11;9.07;;;6.35;;
56255;SDS011;57229;51.432;-2.598;2022-12-18T00:20:39;8.15;;;6.40;;
56255;SDS011;57229;51.432;-2.598;2022-12-18T00:23:08;8.07;;;6.50;;
56255;SDS011;57229;51.432;-2.598;2022-12-18T00:25:36;9.57;;;6.53;;
56255;SDS011;57229;51.432;-2.598;2022-12-18T00:28:03;10.57;;;6.60;;
56255;SDS011;57229;51.432;-2.598;2022-12-18T00:33:22;7.82;;;5.88;;
56255;SDS011;57229;51.432;-2.598;2022-12-18T00:35:48;8.88;;;6.60;;
56255;SDS011;57229;51.432;-2.598;2022-12-18T00:38:14;9.18;;;6.38;;
56255;SDS011;57229;51.432;-2.598;2022-12-18T00:40:40;9.07;;;6.30;;
56255;SDS011;57229;51.432;-2.598;2022-12-18T00:43:08;9.32;;;6.55;;
56255;SDS011;57229;51.432;-2.598;2022-12-18T00:45:39;9.15;;;6.70;;
56255;SDS011;57229;51.432;-2.598;2022-12-18T00:48:06;8.13;;;6.60;;
56255;SDS011;57229;51.432;-2.598;2022-12-18T00:53:28;7.95;;;6.30;;
56255;SDS011;57229;51.432;-2.598;2022-12-18T00:55:56;10.18;;;6.65;;
56255;SDS011;57229;51.432;-2.598;2022-12-18T01:01:03;12.10;;;6.35;;
56255;SDS011;57229;51.432;-2.598;2022-12-18T01:03:52;9.68;;;6.10;;
56255;SDS011;57229;51.432;-2.598;2022-12-18T01:06:19;9.32;;;6.53;;
56255;SDS011;57229;51.432;-2.598;2022-12-18T01:08:45;9.32;;;6.65;;
56255;SDS011;57229;51.432;-2.598;2022-12-18T01:11:12;12.20;;;6.53;;
56255;SDS011;57229;51.432;-2.598;2022-12-18T01:13:45;8.50;;;6.47;;
56255;SDS011;57229;51.432;-2.598;2022-12-18T01:16:30;11.38;;;6.82;;
56255;SDS011;57229;51.432;-2.598;2022-12-18T01:19:00;9.15;;;6.13;;
56255;SDS011;57229;51.432;-2.598;2022-12-18T01:21:28;9.93;;;6.22;;
56255;SDS011;57229;51.432;-2.598;2022-12-18T01:23:55;8.43;;;6.30;;
56255;SDS011;57229;51.432;-2.598;2022-12-18T01:26:21;11.20;;;6.55;;
56255;SDS011;57229;51.432;-2.598;2022-12-18T01:28:47;10.10;;;6.45;;
56255;SDS011;57229;51.432;-2.598;2022-12-18T01:33:46;8.07;;;6.68;;
56255;SDS011;57229;51.432;-2.598;2022-12-18T01:36:19;9.35;;;6.10;;
56255;SDS011;57229;51.432;-2.598;2022-12-18T01:38:53;10.23;;;6.20;;
56255;SDS011;57229;51.432;-2.598;2022-12-18T01:41:24;10.60;;;6.38;;
56255;SDS011;57229;51.432;-2.598;2022-12-18T01:47:23;8.82;;;6.22;;
56255;SDS011;57229;51.432;-2.598;2022-12-18T01:49:59;8.48;;;6.40;;
56255;SDS011;57229;51.432;-2.598;2022-12-18T01:52:30;8.68;;;6.28;;
56255;SDS011;57229;51.432;-2.598;2022-12-18T01:54:57;8.85;;;6.72;;
56255;SDS011;57229;51.432;-2.598;2022-12-18T01:57:25;9.30;;;6.80;;
56255;SDS011;57229;51.432;-2.598;2022-12-18T01:59:52;9.88;;;6.80;;
56255;SDS011;57229;51.432;-2.598;2022-12-18T02:02:21;10.55;;;6.25;;
56255;SDS011;57229;51.432;-2.598;2022-12-18T02:04:47;9.20;;;6.28;;
56255;SDS011;57229;51.432;-2.598;2022-12-18T02:09:51;8.40;;;6.43;;
56255;SDS011;57229;51.432;-2.598;2022-12-18T02:12:25;7.90;;;6.15;;
56255;SDS011;57229;51.432;-2.598;2022-12-18T02:17:33;9.02;;;6.60;;
56255;SDS011;57229;51.432;-2.598;2022-12-18T02:23:24;7.63;;;6.40;;
56255;SDS011;57229;51.432;-2.598;2022-12-18T02:28:42;8.43;;;6.20;;
56255;SDS011;57229;51.432;-2.598;2022-12-18T02:33:48;10.18;;;6.40;;
56255;SDS011;57229;51.432;-2.598;2022-12-18T02:36:16;8.63;;;6.50;;
56255;SDS011;57229;51.432;-2.598;2022-12-18T02:38:45;9.50;;;6.53;;
56255;SDS011;57229;51.432;-2.598;2022-12-18T02:41:12;9.98;;;6.43;;
56255;SDS011;57229;51.432;-2.598;2022-12-18T02:43:40;8.88;;;6.45;;
56255;SDS011;57229;51.432;-2.598;2022-12-18T02:46:23;10.13;;;6.60;;
56255;SDS011;57229;51.432;-2.598;2022-12-18T02:49:01;6.45;;;5.68;;
56255;SDS011;57229;51.432;-2.598;2022-12-18T02:51:40;8.23;;;6.38;;
56255;SDS011;57229;51.432;-2.598;2022-12-18T02:54:22;9.02;;;6.40;;
56255;SDS011;57229;51.432;-2.598;2022-12-18T02:56:51;9.00;;;5.85;;
56255;SDS011;57229;51.432;-2.598;2022-12-18T02:59:23;8.85;;;6.78;;
56255;SDS011;57229;51.432;-2.598;2022-12-18T03:02:22;9.68;;;6.43;;
56255;SDS011;57229;51.432;-2.598;2022-12-18T03:05:05;7.07;;;5.93;;
56255;SDS011;57229;51.432;-2.598;2022-12-18T03:07:37;8.38;;;6.30;;
56255;SDS011;57229;51.432;-2.598;2022-12-18T03:10:09;9.48;;;6.35;;
56255;SDS011;57229;51.432;-2.598;2022-12-18T03:12:40;8.23;;;6.28;;
56255;SDS011;57229;51.432;-2.598;2022-12-18T03:18:01;7.68;;;6.20;;
56255;SDS011;57229;51.432;-2.598;2022-12-18T03:20:32;8.55;;;6.03;;
56255;SDS011;57229;51.432;-2.598;2022-12-18T03:23:10;9.00;;;6.38;;
56255;SDS011;57229;51.432;-2.598;2022-12-18T03:25:40;9.20;;;6.28;;
56255;SDS011;57229;51.432;-2.598;2022-12-18T03:28:12;9.32;;;6.00;;
56255;SDS011;57229;51.432;-2.598;2022-12-18T03:30:41;9.07;;;6.75;;
56255;SDS011;57229;51.432;-2.598;2022-12-18T03:33:16;10.25;;;6.20;;
56255;SDS011;57229;51.432;-2.598;2022-12-18T03:35:46;8.32;;;6.45;;
56255;SDS011;57229;51.432;-2.598;2022-12-18T03:38:13;10.63;;;6.53;;
56255;SDS011;57229;51.432;-2.598;2022-12-18T03:46:08;8.98;;;5.60;;
56255;SDS011;57229;51.432;-2.598;2022-12-18T03:48:46;11.10;;;5.88;;
56255;SDS011;57229;51.432;-2.598;2022-12-18T03:51:20;9.32;;;5.40;;
56255;SDS011;57229;51.432;-2.598;2022-12-18T03:54:00;8.50;;;5.50;;
56255;SDS011;57229;51.432;-2.598;2022-12-18T03:56:29;8.18;;;5.63;;
56255;SDS011;57229;51.432;-2.598;2022-12-18T03:58:59;7.93;;;5.80;;
56255;SDS011;57229;51.432;-2.598;2022-12-18T04:01:38;11.07;;;6.35;;
56255;SDS011;57229;51.432;-2.598;2022-12-18T04:04:10;7.63;;;5.72;;
56255;SDS011;57229;51.432;-2.598;2022-12-18T04:06:41;7.82;;;5.82;;
56255;SDS011;57229;51.432;-2.598;2022-12-18T04:09:08;8.30;;;5.90;;
56255;SDS011;57229;51.432;-2.598;2022-12-18T04:11:34;8.63;;;5.60;;
56255;SDS011;57229;51.432;-2.598;2022-12-18T04:14:00;7.57;;;6.20;;
56255;SDS011;57229;51.432;-2.598;2022-12-18T04:16:26;11.25;;;7.00;;
56255;SDS011;57229;51.432;-2.598;2022-12-18T04:18:52;7.95;;;5.72;;
56255;SDS011;57229;51.432;-2.598;2022-12-18T04:21:18;8.05;;;6.10;;
56255;SDS011;57229;51.432;-2.598;2022-12-18T04:23:46;8.40;;;5.70;;
56255;SDS011;57229;51.432;-2.598;2022-12-18T04:26:12;9.75;;;5.85;;
56255;SDS011;57229;51.432;-2.598;2022-12-18T04:28:38;7.95;;;5.68;;
56255;SDS011;57229;51.432;-2.598;2022-12-18T04:31:04;8.95;;;5.82;;
56255;SDS011;57229;51.432;-2.598;2022-12-18T04:33:30;7.20;;;5.53;;
56255;SDS011;57229;51.432;-2.598;2022-12-18T04:35:56;9.18;;;5.80;;
56255;SDS011;57229;51.432;-2.598;2022-12-18T04:38:21;9.48;;;5.75;;
56255;SDS011;57229;51.432;-2.598;2022-12-18T04:40:47;9.98;;;5.55;;
56255;SDS011;57229;51.432;-2.598;2022-12-18T04:43:12;8.20;;;5.70;;
56255;SDS011;57229;51.432;-2.598;2022-12-18T04:45:38;9.65;;;5.90;;
56255;SDS011;57229;51.432;-2.598;2022-12-18T04:48:04;8.45;;;5.93;;
56255;SDS011;57229;51.432;-2.598;2022-12-18T04:50:30;8.82;;;5.97;;
56255;SDS011;57229;51.432;-2.598;2022-12-18T04:52:56;7.47;;;5.95;;
56255;SDS011;57229;51.432;-2.598;2022-12-18T04:55:22;8.75;;;5.82;;
56255;SDS011;57229;51.432;-2.598;2022-12-18T04:57:47;7.80;;;5.63;;
56255;SDS011;57229;51.432;-2.598;2022-12-18T05:00:13;9.98;;;6.20;;
56255;SDS011;57229;51.432;-2.598;2022-12-18T05:02:39;9.85;;;5.95;;
56255;SDS011;57229;51.432;-2.598;2022-12-18T05:05:05;6.50;;;5.60;;
56255;SDS011;57229;51.432;-2.598;2022-12-18T05:07:32;14.70;;;6.18;;
56255;SDS011;57229;51.432;-2.598;2022-12-18T05:09:58;8.40;;;5.72;;
56255;SDS011;57229;51.432;-2.598;2022-12-18T05:12:23;7.70;;;5.80;;
56255;SDS011;57229;51.432;-2.598;2022-12-18T05:14:49;9.07;;;5.63;;
56255;SDS011;57229;51.432;-2.598;2022-12-18T05:17:15;10.27;;;5.82;;
56255;SDS011;57229;51.432;-2.598;2022-12-18T05:19:40;8.68;;;5.93;;
56255;SDS011;57229;51.432;-2.598;2022-12-18T05:22:06;9.50;;;5.78;;
56255;SDS011;57229;51.432;-2.598;2022-12-18T05:24:32;10.52;;;6.25;;
56255;SDS011;57229;51.432;-2.598;2022-12-18T05:26:58;8.00;;;5.90;;
56255;SDS011;57229;51.432;-2.598;2022-12-18T05:29:23;8.40;;;6.45;;
56255;SDS011;57229;51.432;-2.598;2022-12-18T05:31:49;11.43;;;6.88;;
56255;SDS011;57229;51.432;-2.598;2022-12-18T05:34:15;8.65;;;6.10;;
56255;SDS011;57229;51.432;-2.598;2022-12-18T05:36:40;7.80;;;5.65;;
56255;SDS011;57229;51.432;-2.598;2022-12-18T05:39:06;8.65;;;6.32;;
56255;SDS011;57229;51.432;-2.598;2022-12-18T05:41:32;8.65;;;5.85;;
56255;SDS011;57229;51.432;-2.598;2022-12-18T05:43:58;8.23;;;5.88;;
56255;SDS011;57229;51.432;-2.598;2022-12-18T05:46:24;7.90;;;5.78;;
56255;SDS011;57229;51.432;-2.598;2022-12-18T05:48:50;7.05;;;5.50;;
56255;SDS011;57229;51.432;-2.598;2022-12-18T05:51:17;8.38;;;6.05;;
56255;SDS011;57229;51.432;-2.598;2022-12-18T05:53:44;8.93;;;6.32;;
56255;SDS011;57229;51.432;-2.598;2022-12-18T05:56:12;9.82;;;6.15;;
56255;SDS011;57229;51.432;-2.598;2022-12-18T05:58:40;8.80;;;5.90;;
56255;SDS011;57229;51.432;-2.598;2022-12-18T06:01:27;7.13;;;6.18;;
56255;SDS011;57229;51.432;-2.598;2022-12-18T06:03:52;8.18;;;6.00;;
56255;SDS011;57229;51.432;-2.598;2022-12-18T06:06:25;8.98;;;6.25;;
56255;SDS011;57229;51.432;-2.598;2022-12-18T06:08:52;9.48;;;6.43;;
56255;SDS011;57229;51.432;-2.598;2022-12-18T06:11:21;9.88;;;6.50;;
56255;SDS011;57229;51.432;-2.598;2022-12-18T06:13:52;8.65;;;6.47;;
56255;SDS011;57229;51.432;-2.598;2022-12-18T06:16:18;11.27;;;7.00;;
56255;SDS011;57229;51.432;-2.598;2022-12-18T06:18:44;8.43;;;6.55;;
56255;SDS011;57229;51.432;-2.598;2022-12-18T06:21:10;10.02;;;6.78;;
56255;SDS011;57229;51.432;-2.598;2022-12-18T06:23:35;9.10;;;6.60;;
56255;SDS011;57229;51.432;-2.598;2022-12-18T06:26:09;9.13;;;6.70;;
56255;SDS011;57229;51.432;-2.598;2022-12-18T06:28:36;9.77;;;6.90;;
56255;SDS011;57229;51.432;-2.598;2022-12-18T06:31:02;8.07;;;6.55;;
56255;SDS011;57229;51.432;-2.598;2022-12-18T06:33:29;9.25;;;6.65;;
56255;SDS011;57229;51.432;-2.598;2022-12-18T06:36:05;8.20;;;6.65;;
56255;SDS011;57229;51.432;-2.598;2022-12-18T06:38:33;10.13;;;6.97;;
56255;SDS011;57229;51.432;-2.598;2022-12-18T06:41:09;8.70;;;7.13;;
56255;SDS011;57229;51.432;-2.598;2022-12-18T06:43:36;10.30;;;7.28;;
56255;SDS011;57229;51.432;-2.598;2022-12-18T06:46:03;9.85;;;6.97;;
56255;SDS011;57229;51.432;-2.598;2022-12-18T06:48:29;9.65;;;6.93;;
56255;SDS011;57229;51.432;-2.598;2022-12-18T06:50:55;8.43;;;6.72;;
56255;SDS011;57229;51.432;-2.598;2022-12-18T06:53:21;9.50;;;6.70;;
56255;SDS011;57229;51.432;-2.598;2022-12-18T06:55:48;8.93;;;6.57;;
56255;SDS011;57229;51.432;-2.598;2022-12-18T06:58:14;9.75;;;6.85;;
56255;SDS011;57229;51.432;-2.598;2022-12-18T07:00:39;8.82;;;6.60;;
56255;SDS011;57229;51.432;-2.598;2022-12-18T07:03:05;9.88;;;6.38;;
56255;SDS011;57229;51.432;-2.598;2022-12-18T07:05:31;8.63;;;6.97;;
56255;SDS011;57229;51.432;-2.598;2022-12-18T07:07:57;10.35;;;6.82;;
56255;SDS011;57229;51.432;-2.598;2022-12-18T07:10:23;10.13;;;7.05;;
56255;SDS011;57229;51.432;-2.598;2022-12-18T07:12:49;11.77;;;6.90;;
56255;SDS011;57229;51.432;-2.598;2022-12-18T07:15:15;9.18;;;6.65;;
56255;SDS011;57229;51.432;-2.598;2022-12-18T07:17:40;9.48;;;7.13;;
56255;SDS011;57229;51.432;-2.598;2022-12-18T07:20:06;9.48;;;6.97;;
56255;SDS011;57229;51.432;-2.598;2022-12-18T07:22:32;9.85;;;7.15;;
56255;SDS011;57229;51.432;-2.598;2022-12-18T07:24:58;11.45;;;7.63;;
56255;SDS011;57229;51.432;-2.598;2022-12-18T07:27:24;10.68;;;6.57;;
56255;SDS011;57229;51.432;-2.598;2022-12-18T07:29:49;11.35;;;6.82;;
56255;SDS011;57229;51.432;-2.598;2022-12-18T07:32:15;11.50;;;7.40;;
56255;SDS011;57229;51.432;-2.598;2022-12-18T07:34:41;10.23;;;6.82;;
56255;SDS011;57229;51.432;-2.598;2022-12-18T07:37:06;10.85;;;6.80;;
56255;SDS011;57229;51.432;-2.598;2022-12-18T07:39:32;12.93;;;6.97;;
56255;SDS011;57229;51.432;-2.598;2022-12-18T07:41:58;9.73;;;7.15;;
56255;SDS011;57229;51.432;-2.598;2022-12-18T07:44:42;14.73;;;7.63;;
56255;SDS011;57229;51.432;-2.598;2022-12-18T07:47:08;9.95;;;7.07;;
56255;SDS011;57229;51.432;-2.598;2022-12-18T07:49:33;11.18;;;7.85;;
56255;SDS011;57229;51.432;-2.598;2022-12-18T07:51:59;10.40;;;6.80;;
56255;SDS011;57229;51.432;-2.598;2022-12-18T07:54:25;11.50;;;7.60;;
56255;SDS011;57229;51.432;-2.598;2022-12-18T07:56:51;13.15;;;7.00;;
56255;SDS011;57229;51.432;-2.598;2022-12-18T07:59:17;9.25;;;7.20;;
56255;SDS011;57229;51.432;-2.598;2022-12-18T08:01:43;8.43;;;6.55;;
56255;SDS011;57229;51.432;-2.598;2022-12-18T08:04:09;8.50;;;6.40;;
56255;SDS011;57229;51.432;-2.598;2022-12-18T08:06:35;13.23;;;6.78;;
56255;SDS011;57229;51.432;-2.598;2022-12-18T08:09:00;13.60;;;7.30;;
56255;SDS011;57229;51.432;-2.598;2022-12-18T08:11:27;14.20;;;7.07;;
56255;SDS011;57229;51.432;-2.598;2022-12-18T08:13:53;9.57;;;6.97;;
56255;SDS011;57229;51.432;-2.598;2022-12-18T08:16:20;13.38;;;6.30;;
56255;SDS011;57229;51.432;-2.598;2022-12-18T08:18:47;10.38;;;6.75;;
56255;SDS011;57229;51.432;-2.598;2022-12-18T08:21:16;10.57;;;6.88;;
56255;SDS011;57229;51.432;-2.598;2022-12-18T08:23:46;11.10;;;7.07;;
56255;SDS011;57229;51.432;-2.598;2022-12-18T08:26:11;13.18;;;7.07;;
56255;SDS011;57229;51.432;-2.598;2022-12-18T08:28:38;10.57;;;6.63;;
56255;SDS011;57229;51.432;-2.598;2022-12-18T08:31:04;9.00;;;6.50;;
56255;SDS011;57229;51.432;-2.598;2022-12-18T08:33:31;10.15;;;6.30;;
56255;SDS011;57229;51.432;-2.598;2022-12-18T08:35:59;11.30;;;6.93;;
56255;SDS011;57229;51.432;-2.598;2022-12-18T08:38:40;9.45;;;6.30;;
56255;SDS011;57229;51.432;-2.598;2022-12-18T08:41:09;8.95;;;6.68;;
56255;SDS011;57229;51.432;-2.598;2022-12-18T08:43:56;11.75;;;7.43;;
56255;SDS011;57229;51.432;-2.598;2022-12-18T08:46:41;10.15;;;6.90;;
56255;SDS011;57229;51.432;-2.598;2022-12-18T08:49:08;8.00;;;6.20;;
56255;SDS011;57229;51.432;-2.598;2022-12-18T08:51:35;7.75;;;6.20;;
56255;SDS011;57229;51.432;-2.598;2022-12-18T08:54:01;12.07;;;6.32;;
56255;SDS011;57229;51.432;-2.598;2022-12-18T08:56:27;9.30;;;6.20;;
56255;SDS011;57229;51.432;-2.598;2022-12-18T08:58:53;10.73;;;6.50;;
56255;SDS011;57229;51.432;-2.598;2022-12-18T09:01:19;10.02;;;6.80;;
56255;SDS011;57229;51.432;-2.598;2022-12-18T09:03:46;11.85;;;7.57;;
56255;SDS011;57229;51.432;-2.598;2022-12-18T09:06:15;10.43;;;6.15;;
56255;SDS011;57229;51.432;-2.598;2022-12-18T09:08:42;10.77;;;6.50;;
56255;SDS011;57229;51.432;-2.598;2022-12-18T09:14:00;8.80;;;6.38;;
56255;SDS011;57229;51.432;-2.598;2022-12-18T09:16:27;8.43;;;6.55;;
56255;SDS011;57229;51.432;-2.598;2022-12-18T09:18:56;10.98;;;6.28;;
56255;SDS011;57229;51.432;-2.598;2022-12-18T09:21:30;8.07;;;6.30;;
56255;SDS011;57229;51.432;-2.598;2022-12-18T09:23:57;9.13;;;6.50;;
56255;SDS011;57229;51.432;-2.598;2022-12-18T09:26:23;9.05;;;6.95;;
56255;SDS011;57229;51.432;-2.598;2022-12-18T09:28:50;10.57;;;6.50;;
56255;SDS011;57229;51.432;-2.598;2022-12-18T09:31:17;8.07;;;6.40;;
56255;SDS011;57229;51.432;-2.598;2022-12-18T09:33:44;8.82;;;6.43;;
56255;SDS011;57229;51.432;-2.598;2022-12-18T09:36:11;10.45;;;6.38;;
56255;SDS011;57229;51.432;-2.598;2022-12-18T09:38:39;8.50;;;6.10;;
56255;SDS011;57229;51.432;-2.598;2022-12-18T09:41:06;9.30;;;6.80;;
56255;SDS011;57229;51.432;-2.598;2022-12-18T09:43:48;8.93;;;6.53;;
56255;SDS011;57229;51.432;-2.598;2022-12-18T09:46:27;9.63;;;6.60;;
56255;SDS011;57229;51.432;-2.598;2022-12-18T09:48:56;7.85;;;6.10;;
56255;SDS011;57229;51.432;-2.598;2022-12-18T09:51:27;10.70;;;6.53;;
56255;SDS011;57229;51.432;-2.598;2022-12-18T09:54:10;11.80;;;6.63;;
56255;SDS011;57229;51.432;-2.598;2022-12-18T09:56:41;15.73;;;6.90;;
56255;SDS011;57229;51.432;-2.598;2022-12-18T09:59:24;9.77;;;6.10;;
56255;SDS011;57229;51.432;-2.598;2022-12-18T10:02:21;12.38;;;6.28;;
56255;SDS011;57229;51.432;-2.598;2022-12-18T10:04:53;14.10;;;6.68;;
56255;SDS011;57229;51.432;-2.598;2022-12-18T10:07:40;9.38;;;6.68;;
56255;SDS011;57229;51.432;-2.598;2022-12-18T10:10:12;10.02;;;6.45;;
56255;SDS011;57229;51.432;-2.598;2022-12-18T10:15:36;9.40;;;6.55;;
56255;SDS011;57229;51.432;-2.598;2022-12-18T10:20:55;15.00;;;6.50;;
56255;SDS011;57229;51.432;-2.598;2022-12-18T10:23:39;20.42;;;6.40;;
56255;SDS011;57229;51.432;-2.598;2022-12-18T10:26:23;25.75;;;6.97;;
56255;SDS011;57229;51.432;-2.598;2022-12-18T10:28:50;16.88;;;6.45;;
56255;SDS011;57229;51.432;-2.598;2022-12-18T10:31:19;12.02;;;6.35;;
56255;SDS011;57229;51.432;-2.598;2022-12-18T10:33:46;16.52;;;6.65;;
56255;SDS011;57229;51.432;-2.598;2022-12-18T10:36:12;13.77;;;5.88;;
56255;SDS011;57229;51.432;-2.598;2022-12-18T10:38:39;11.20;;;6.18;;
56255;SDS011;57229;51.432;-2.598;2022-12-18T10:41:06;9.80;;;6.43;;
56255;SDS011;57229;51.432;-2.598;2022-12-18T10:43:46;13.52;;;6.43;;
56255;SDS011;57229;51.432;-2.598;2022-12-18T10:46:12;12.70;;;6.45;;
56255;SDS011;57229;51.432;-2.598;2022-12-18T10:51:23;9.95;;;6.70;;
56255;SDS011;57229;51.432;-2.598;2022-12-18T10:56:44;10.45;;;6.20;;
56255;SDS011;57229;51.432;-2.598;2022-12-18T10:59:12;15.13;;;6.65;;
56255;SDS011;57229;51.432;-2.598;2022-12-18T11:04:30;10.13;;;6.00;;
56255;SDS011;57229;51.432;-2.598;2022-12-18T11:09:27;10.80;;;6.25;;
56255;SDS011;57229;51.432;-2.598;2022-12-18T11:11:57;7.53;;;6.07;;
56255;SDS011;57229;51.432;-2.598;2022-12-18T11:17:16;10.15;;;6.28;;
56255;SDS011;57229;51.432;-2.598;2022-12-18T11:19:44;8.95;;;6.07;;
56255;SDS011;57229;51.432;-2.598;2022-12-18T11:22:34;9.10;;;6.25;;
56255;SDS011;57229;51.432;-2.598;2022-12-18T11:36:49;7.97;;;5.85;;
56255;SDS011;57229;51.432;-2.598;2022-12-18T11:44:57;8.02;;;5.97;;
56255;SDS011;57229;51.432;-2.598;2022-12-18T11:50:02;12.43;;;6.95;;
56255;SDS011;57229;51.432;-2.598;2022-12-18T11:52:38;13.15;;;6.43;;
56255;SDS011;57229;51.432;-2.598;2022-12-18T11:55:13;12.25;;;7.22;;
56255;SDS011;57229;51.432;-2.598;2022-12-18T12:01:06;20.77;;;9.00;;
56255;SDS011;57229;51.432;-2.598;2022-12-18T12:06:22;27.40;;;11.30;;
56255;SDS011;57229;51.432;-2.598;2022-12-18T12:20:10;16.20;;;9.63;;
56255;SDS011;57229;51.432;-2.598;2022-12-18T12:25:41;20.75;;;9.63;;
56255;SDS011;57229;51.432;-2.598;2022-12-18T12:33:48;20.52;;;9.00;;
56255;SDS011;57229;51.432;-2.598;2022-12-18T12:36:24;22.05;;;8.65;;
56255;SDS011;57229;51.432;-2.598;2022-12-18T12:39:05;18.00;;;8.27;;
56255;SDS011;57229;51.432;-2.598;2022-12-18T12:41:33;17.90;;;8.02;;
56255;SDS011;57229;51.432;-2.598;2022-12-18T12:44:23;16.75;;;8.40;;
56255;SDS011;57229;51.432;-2.598;2022-12-18T12:46:55;14.48;;;7.57;;
56255;SDS011;57229;51.432;-2.598;2022-12-18T12:49:29;14.55;;;8.05;;
56255;SDS011;57229;51.432;-2.598;2022-12-18T12:52:00;12.60;;;7.28;;
56255;SDS011;57229;51.432;-2.598;2022-12-18T12:54:38;12.00;;;7.35;;
56255;SDS011;57229;51.432;-2.598;2022-12-18T12:57:08;13.02;;;6.97;;
56255;SDS011;57229;51.432;-2.598;2022-12-18T13:05:23;11.30;;;6.78;;
56255;SDS011;57229;51.432;-2.598;2022-12-18T13:10:32;12.93;;;6.75;;
56255;SDS011;57229;51.432;-2.598;2022-12-18T13:13:09;12.55;;;6.70;;
56255;SDS011;57229;51.432;-2.598;2022-12-18T13:15:39;11.20;;;6.05;;
56255;SDS011;57229;51.432;-2.598;2022-12-18T13:23:01;8.73;;;5.30;;
56255;SDS011;57229;51.432;-2.598;2022-12-18T13:26:00;8.77;;;5.60;;
56255;SDS011;57229;51.432;-2.598;2022-12-18T13:36:38;8.10;;;5.32;;
56255;SDS011;57229;51.432;-2.598;2022-12-18T13:39:11;8.25;;;4.95;;
56255;SDS011;57229;51.432;-2.598;2022-12-18T13:41:44;7.28;;;5.15;;
56255;SDS011;57229;51.432;-2.598;2022-12-18T13:46:57;5.75;;;4.32;;
56255;SDS011;57229;51.432;-2.598;2022-12-18T13:49:36;11.48;;;4.60;;
56255;SDS011;57229;51.432;-2.598;2022-12-18T13:52:25;9.73;;;4.80;;
56255;SDS011;57229;51.432;-2.598;2022-12-18T13:54:52;5.55;;;4.68;;
56255;SDS011;57229;51.432;-2.598;2022-12-18T13:57:38;6.30;;;4.65;;
56255;SDS011;57229;51.432;-2.598;2022-12-18T14:00:25;8.25;;;5.43;;
56255;SDS011;57229;51.432;-2.598;2022-12-18T14:02:53;7.60;;;4.43;;
56255;SDS011;57229;51.432;-2.598;2022-12-18T14:05:30;10.27;;;4.40;;
56255;SDS011;57229;51.432;-2.598;2022-12-18T14:08:01;7.03;;;3.85;;
56255;SDS011;57229;51.432;-2.598;2022-12-18T14:10:33;7.45;;;4.10;;
56255;SDS011;57229;51.432;-2.598;2022-12-18T14:13:02;4.32;;;3.47;;
56255;SDS011;57229;51.432;-2.598;2022-12-18T14:15:32;4.15;;;3.60;;
56255;SDS011;57229;51.432;-2.598;2022-12-18T14:18:01;4.05;;;3.65;;
56255;SDS011;57229;51.432;-2.598;2022-12-18T14:20:34;4.88;;;4.00;;
56255;SDS011;57229;51.432;-2.598;2022-12-18T14:23:00;5.93;;;4.07;;
56255;SDS011;57229;51.432;-2.598;2022-12-18T14:25:27;5.18;;;4.10;;
56255;SDS011;57229;51.432;-2.598;2022-12-18T14:30:32;4.97;;;3.50;;
56255;SDS011;57229;51.432;-2.598;2022-12-18T14:33:02;6.30;;;4.00;;
56255;SDS011;57229;51.432;-2.598;2022-12-18T14:35:42;4.15;;;3.40;;
56255;SDS011;57229;51.432;-2.598;2022-12-18T14:38:35;3.85;;;3.25;;
56255;SDS011;57229;51.432;-2.598;2022-12-18T14:41:03;5.03;;;3.33;;
56255;SDS011;57229;51.432;-2.598;2022-12-18T14:43:43;5.35;;;3.47;;
56255;SDS011;57229;51.432;-2.598;2022-12-18T14:49:04;4.03;;;3.17;;
56255;SDS011;57229;51.432;-2.598;2022-12-18T14:51:49;4.30;;;3.20;;
56255;SDS011;57229;51.432;-2.598;2022-12-18T14:54:39;5.72;;;3.03;;
56255;SDS011;57229;51.432;-2.598;2022-12-18T14:57:06;4.07;;;3.03;;
56255;SDS011;57229;51.432;-2.598;2022-12-18T14:59:39;5.18;;;3.22;;
56255;SDS011;57229;51.432;-2.598;2022-12-18T15:05:01;4.73;;;3.03;;
56255;SDS011;57229;51.432;-2.598;2022-12-18T15:07:39;4.55;;;3.13;;
56255;SDS011;57229;51.432;-2.598;2022-12-18T15:12:44;2.88;;;2.60;;
56255;SDS011;57229;51.432;-2.598;2022-12-18T15:15:41;2.95;;;2.67;;
56255;SDS011;57229;51.432;-2.598;2022-12-18T15:20:42;3.22;;;2.92;;
56255;SDS011;57229;51.432;-2.598;2022-12-18T15:25:55;3.33;;;3.03;;
56255;SDS011;57229;51.432;-2.598;2022-12-18T15:33:29;3.20;;;3.00;;
56255;SDS011;57229;51.432;-2.598;2022-12-18T15:36:00;3.10;;;2.90;;
56255;SDS011;57229;51.432;-2.598;2022-12-18T15:38:30;3.53;;;3.22;;
56255;SDS011;57229;51.432;-2.598;2022-12-18T15:40:57;3.40;;;3.10;;
56255;SDS011;57229;51.432;-2.598;2022-12-18T15:43:23;3.42;;;3.13;;
56255;SDS011;57229;51.432;-2.598;2022-12-18T15:46:06;3.30;;;3.00;;
56255;SDS011;57229;51.432;-2.598;2022-12-18T15:48:39;3.10;;;2.90;;
56255;SDS011;57229;51.432;-2.598;2022-12-18T15:51:16;4.20;;;2.80;;
56255;SDS011;57229;51.432;-2.598;2022-12-18T15:58:56;2.80;;;2.60;;
56255;SDS011;57229;51.432;-2.598;2022-12-18T16:01:22;2.55;;;2.35;;
56255;SDS011;57229;51.432;-2.598;2022-12-18T16:03:50;3.20;;;2.95;;
56255;SDS011;57229;51.432;-2.598;2022-12-18T16:06:16;3.67;;;2.90;;
56255;SDS011;57229;51.432;-2.598;2022-12-18T16:08:41;2.80;;;2.60;;
56255;SDS011;57229;51.432;-2.598;2022-12-18T16:11:21;2.80;;;2.60;;
56255;SDS011;57229;51.432;-2.598;2022-12-18T16:16:37;2.72;;;2.53;;
56255;SDS011;57229;51.432;-2.598;2022-12-18T16:19:03;2.70;;;2.50;;
56255;SDS011;57229;51.432;-2.598;2022-12-18T16:21:29;3.00;;;2.70;;
56255;SDS011;57229;51.432;-2.598;2022-12-18T16:23:54;2.90;;;2.67;;
56255;SDS011;57229;51.432;-2.598;2022-12-18T16:26:20;2.90;;;2.70;;
56255;SDS011;57229;51.432;-2.598;2022-12-18T16:28:46;2.80;;;2.60;;
56255;SDS011;57229;51.432;-2.598;2022-12-18T16:31:11;2.60;;;2.40;;
56255;SDS011;57229;51.432;-2.598;2022-12-18T16:33:37;2.85;;;2.65;;
56255;SDS011;57229;51.432;-2.598;2022-12-18T16:36:03;2.85;;;2.65;;
56255;SDS011;57229;51.432;-2.598;2022-12-18T16:38:29;2.45;;;2.25;;
56255;SDS011;57229;51.432;-2.598;2022-12-18T16:40:54;2.63;;;2.40;;
56255;SDS011;57229;51.432;-2.598;2022-12-18T16:43:39;2.60;;;2.40;;
56255;SDS011;57229;51.432;-2.598;2022-12-18T16:46:04;4.55;;;2.55;;
56255;SDS011;57229;51.432;-2.598;2022-12-18T16:48:30;4.00;;;2.60;;
56255;SDS011;57229;51.432;-2.598;2022-12-18T16:51:03;5.00;;;2.60;;
56255;SDS011;57229;51.432;-2.598;2022-12-18T16:53:30;2.83;;;2.63;;
56255;SDS011;57229;51.432;-2.598;2022-12-18T16:55:57;3.00;;;2.67;;
56255;SDS011;57229;51.432;-2.598;2022-12-18T16:58:23;3.40;;;2.30;;
56255;SDS011;57229;51.432;-2.598;2022-12-18T17:00:48;2.40;;;2.20;;
56255;SDS011;57229;51.432;-2.598;2022-12-18T17:03:14;3.88;;;2.20;;
56255;SDS011;57229;51.432;-2.598;2022-12-18T17:05:40;5.40;;;2.47;;
56255;SDS011;57229;51.432;-2.598;2022-12-18T17:08:06;5.57;;;2.70;;
56255;SDS011;57229;51.432;-2.598;2022-12-18T17:10:35;12.50;;;3.05;;
56255;SDS011;57229;51.432;-2.598;2022-12-18T17:13:01;7.70;;;2.70;;
56255;SDS011;57229;51.432;-2.598;2022-12-18T17:15:27;3.50;;;2.20;;
56255;SDS011;57229;51.432;-2.598;2022-12-18T17:17:53;10.93;;;2.45;;
56255;SDS011;57229;51.432;-2.598;2022-12-18T17:20:18;4.72;;;2.50;;
56255;SDS011;57229;51.432;-2.598;2022-12-18T17:22:44;13.13;;;2.60;;
56255;SDS011;57229;51.432;-2.598;2022-12-18T17:25:10;5.25;;;2.75;;